createdAt,value
2022-11-17T00:00:42.336Z,89.30
2022-11-17T00:03:16.402Z,87.80
2022-11-17T00:05:44.907Z,88.42
2022-11-17T00:08:12.091Z,88.68
2022-11-17T00:10:39.127Z,88.85
2022-11-17T00:13:24.587Z,88.94
2022-11-17T00:15:51.583Z,88.46
2022-11-17T00:18:37.169Z,87.29
2022-11-17T00:21:19.955Z,87.57
2022-11-17T00:23:47.922Z,87.70
2022-11-17T00:26:21.423Z,86.63
2022-11-17T00:28:56.548Z,86.79
2022-11-17T00:31:44.001Z,86.44
2022-11-17T00:34:16.677Z,86.59
2022-11-17T00:36:49.702Z,85.89
2022-11-17T00:39:19.399Z,86.62
2022-11-17T00:41:46.555Z,86.41
2022-11-17T00:44:14.470Z,87.26
2022-11-17T00:46:43.190Z,86.16
2022-11-17T00:49:11.614Z,86.93
2022-11-17T00:51:39.282Z,86.08
2022-11-17T00:54:08.441Z,86.32
2022-11-17T00:56:35.547Z,85.55
2022-11-17T00:59:04.340Z,84.87
2022-11-17T01:01:31.683Z,85.19
2022-11-17T01:04:03.598Z,85.29
2022-11-17T01:06:41.786Z,83.97
2022-11-17T01:09:17.690Z,84.54
2022-11-17T01:11:45.064Z,84.52
2022-11-17T01:14:22.795Z,84.50
2022-11-17T01:16:50.277Z,84.34
2022-11-17T01:19:19.038Z,83.84
2022-11-17T01:21:47.124Z,84.43
2022-11-17T01:24:16.484Z,84.29
2022-11-17T01:26:45.396Z,84.05
2022-11-17T01:29:17.343Z,82.78
2022-11-17T01:31:45.741Z,83.38
2022-11-17T01:34:13.111Z,82.85
2022-11-17T01:37:01.605Z,82.17
2022-11-17T01:39:30.429Z,81.08
2022-11-17T01:41:58.117Z,81.63
2022-11-17T01:44:59.849Z,79.69
2022-11-17T01:47:37.590Z,80.91
2022-11-17T01:50:33.670Z,80.90
2022-11-17T01:53:05.143Z,80.16
2022-11-17T01:55:45.580Z,80.60
2022-11-17T01:58:20.374Z,80.62
2022-11-17T02:00:47.976Z,80.95
2022-11-17T02:03:14.989Z,80.50
2022-11-17T02:06:07.209Z,80.00
2022-11-17T02:08:38.718Z,81.00
2022-11-17T02:11:14.196Z,81.40
2022-11-17T02:13:41.772Z,80.71
2022-11-17T02:16:14.194Z,80.54
2022-11-17T02:18:43.542Z,81.41
2022-11-17T02:21:22.036Z,80.68
2022-11-17T02:24:16.397Z,81.21
2022-11-17T02:27:28.999Z,80.81
2022-11-17T02:30:12.140Z,80.46
2022-11-17T02:33:17.291Z,80.33
2022-11-17T02:35:58.524Z,80.61
2022-11-17T02:38:49.927Z,79.16
2022-11-17T02:41:35.362Z,79.78
2022-11-17T02:44:27.324Z,79.48
2022-11-17T02:47:09.563Z,79.68
2022-11-17T02:49:45.426Z,79.45
2022-11-17T02:52:14.456Z,78.92
2022-11-17T02:54:41.686Z,79.57
2022-11-17T02:57:31.404Z,79.75
2022-11-17T03:00:14.940Z,80.11
2022-11-17T03:03:18.678Z,79.48
2022-11-17T03:06:29.921Z,79.66
2022-11-17T03:09:25.853Z,79.75
2022-11-17T03:12:02.897Z,80.78
2022-11-17T03:15:15.490Z,81.92
2022-11-17T03:18:06.240Z,82.35
2022-11-17T03:21:01.822Z,81.88
2022-11-17T03:23:49.972Z,81.60
2022-11-17T03:26:27.542Z,82.58
2022-11-17T03:28:56.447Z,82.58
2022-11-17T03:31:26.325Z,82.66
2022-11-17T03:33:54.568Z,82.97
2022-11-17T03:36:34.160Z,82.99
2022-11-17T03:39:25.904Z,83.48
2022-11-17T03:42:00.144Z,83.57
2022-11-17T03:44:30.560Z,83.85
2022-11-17T03:47:00.154Z,84.25
2022-11-17T03:49:52.747Z,84.18
2022-11-17T03:52:20.804Z,84.41
2022-11-17T03:54:48.294Z,85.12
2022-11-17T03:57:54.532Z,84.76
2022-11-17T04:00:21.683Z,84.23
2022-11-17T04:02:54.323Z,84.68
2022-11-17T04:05:21.890Z,84.79
2022-11-17T04:07:49.249Z,84.90
2022-11-17T04:10:20.286Z,84.38
2022-11-17T04:13:07.334Z,84.55
2022-11-17T04:15:52.918Z,84.40
2022-11-17T04:18:21.330Z,85.00
2022-11-17T04:20:54.991Z,84.48
2022-11-17T04:23:23.725Z,84.56
2022-11-17T04:26:12.361Z,83.74
2022-11-17T04:28:49.600Z,84.16
2022-11-17T04:31:25.808Z,84.31
2022-11-17T04:33:56.321Z,84.78
2022-11-17T04:36:35.726Z,84.17
2022-11-17T04:39:03.631Z,83.04
2022-11-17T04:41:49.332Z,82.97
2022-11-17T04:44:17.957Z,83.48
2022-11-17T04:46:48.796Z,83.80
2022-11-17T04:49:18.041Z,83.31
2022-11-17T04:51:46.223Z,84.26
2022-11-17T04:54:16.760Z,83.02
2022-11-17T04:56:44.008Z,82.84
2022-11-17T04:59:11.154Z,82.18
2022-11-17T05:01:38.691Z,82.77
2022-11-17T05:04:15.447Z,82.33
2022-11-17T05:06:44.965Z,84.19
2022-11-17T05:09:17.134Z,84.37
2022-11-17T05:12:02.755Z,83.63
2022-11-17T05:14:30.561Z,83.17
2022-11-17T05:17:11.265Z,84.33
2022-11-17T05:19:44.851Z,83.89
2022-11-17T05:22:36.810Z,84.00
2022-11-17T05:25:05.220Z,82.08
2022-11-17T05:27:34.021Z,82.64
2022-11-17T05:30:03.434Z,81.82
2022-11-17T05:32:30.410Z,80.89
2022-11-17T05:34:57.462Z,80.85
2022-11-17T05:37:24.529Z,81.51
2022-11-17T05:39:51.447Z,81.59
2022-11-17T05:42:18.473Z,81.93
2022-11-17T05:44:46.440Z,81.53
2022-11-17T05:47:13.409Z,82.00
2022-11-17T05:49:40.665Z,83.12
2022-11-17T05:52:07.718Z,82.77
2022-11-17T05:54:34.878Z,81.17
2022-11-17T05:57:19.900Z,81.32
2022-11-17T05:59:54.483Z,81.78
2022-11-17T06:02:39.097Z,82.95
2022-11-17T06:05:07.724Z,83.23
2022-11-17T06:07:37.078Z,82.22
2022-11-17T06:10:05.080Z,82.02
2022-11-17T06:12:32.070Z,81.26
2022-11-17T06:14:59.060Z,80.73
2022-11-17T06:17:35.408Z,81.31
2022-11-17T06:20:21.768Z,82.01
2022-11-17T06:22:49.263Z,81.06
2022-11-17T06:25:20.710Z,80.43
2022-11-17T06:27:49.673Z,80.73
2022-11-17T06:30:17.497Z,80.66
2022-11-17T06:32:45.445Z,80.02
2022-11-17T06:35:14.519Z,79.51
2022-11-17T06:37:41.538Z,79.57
2022-11-17T06:40:10.242Z,78.56
2022-11-17T06:42:58.450Z,78.92
2022-11-17T06:45:25.879Z,78.22
2022-11-17T06:47:53.889Z,78.66
2022-11-17T06:50:21.099Z,77.55
2022-11-17T06:52:48.087Z,78.01
2022-11-17T06:55:15.208Z,77.22
2022-11-17T06:57:42.381Z,77.24
2022-11-17T07:00:10.581Z,76.71
2022-11-17T07:02:37.741Z,76.28
2022-11-17T07:05:05.538Z,76.49
2022-11-17T07:07:32.555Z,76.05
2022-11-17T07:09:59.587Z,76.55
2022-11-17T07:12:26.567Z,76.14
2022-11-17T07:14:53.685Z,76.42
2022-11-17T07:17:20.629Z,76.10
2022-11-17T07:19:47.677Z,74.65
2022-11-17T07:22:14.702Z,74.96
2022-11-17T07:24:41.730Z,76.07
2022-11-17T07:27:08.923Z,75.71
2022-11-17T07:29:35.937Z,75.13
2022-11-17T07:32:03.689Z,75.81
2022-11-17T07:34:30.866Z,76.05
2022-11-17T07:36:58.711Z,75.68
2022-11-17T07:39:25.696Z,76.18
2022-11-17T07:41:52.629Z,76.46
2022-11-17T07:44:19.660Z,76.95
2022-11-17T07:46:46.899Z,75.68
2022-11-17T07:49:13.946Z,75.37
2022-11-17T07:51:41.103Z,75.89
2022-11-17T07:54:08.061Z,76.82
2022-11-17T07:56:35.224Z,76.99
2022-11-17T07:59:02.338Z,76.22
2022-11-17T08:01:29.780Z,76.16
2022-11-17T08:03:57.925Z,77.11
2022-11-17T08:06:25.192Z,77.27
2022-11-17T08:08:53.604Z,78.27
2022-11-17T08:11:21.062Z,76.78
2022-11-17T08:13:48.212Z,76.78
2022-11-17T08:16:15.164Z,77.14
2022-11-17T08:18:45.962Z,77.42
2022-11-17T08:21:15.914Z,76.17
2022-11-17T08:23:43.179Z,76.50
2022-11-17T08:26:11.794Z,76.82
2022-11-17T08:28:39.364Z,76.56
2022-11-17T08:31:08.815Z,76.02
2022-11-17T08:33:36.062Z,75.60
2022-11-17T08:36:07.316Z,76.27
2022-11-17T08:38:35.227Z,75.50
2022-11-17T08:41:06.224Z,75.48
2022-11-17T08:43:33.450Z,75.31
2022-11-17T08:46:02.369Z,75.71
2022-11-17T08:48:31.781Z,76.54
2022-11-17T08:51:04.278Z,76.34
2022-11-17T08:53:31.390Z,76.16
2022-11-17T08:55:58.610Z,76.66
2022-11-17T08:58:25.889Z,76.07
2022-11-17T09:00:53.012Z,76.00
2022-11-17T09:03:20.124Z,75.52
2022-11-17T09:05:47.204Z,75.34
2022-11-17T09:08:43.877Z,75.05
2022-11-17T09:11:11.624Z,75.37
2022-11-17T09:13:40.333Z,76.06
2022-11-17T09:16:10.715Z,75.47
2022-11-17T09:18:39.187Z,75.57
2022-11-17T09:21:15.315Z,75.60
2022-11-17T09:23:42.576Z,76.19
2022-11-17T09:26:13.742Z,76.49
2022-11-17T09:28:41.187Z,76.49
2022-11-17T09:31:19.348Z,76.10
2022-11-17T09:33:46.857Z,76.56
2022-11-17T09:36:16.024Z,76.86
2022-11-17T09:38:43.145Z,76.95
2022-11-17T09:41:22.267Z,76.77
2022-11-17T09:44:08.947Z,77.05
2022-11-17T09:47:01.973Z,76.63
2022-11-17T09:49:40.796Z,76.10
2022-11-17T09:52:39.594Z,75.47
2022-11-17T09:55:09.156Z,75.41
2022-11-17T09:57:45.571Z,76.27
2022-11-17T10:00:20.190Z,76.00
2022-11-17T10:02:47.921Z,76.51
2022-11-17T10:05:33.092Z,76.31
2022-11-17T10:08:13.001Z,76.83
2022-11-17T10:10:50.291Z,76.75
2022-11-17T10:13:36.658Z,76.92
2022-11-17T10:16:06.218Z,76.55
2022-11-17T10:18:38.259Z,77.24
2022-11-17T10:21:08.325Z,78.25
2022-11-17T10:23:44.769Z,78.20
2022-11-17T10:26:15.665Z,77.15
2022-11-17T10:28:43.422Z,76.00
2022-11-17T10:31:17.682Z,75.59
2022-11-17T10:33:48.567Z,74.68
2022-11-17T10:36:20.840Z,74.99
2022-11-17T10:38:55.173Z,74.50
2022-11-17T10:41:42.837Z,73.95
2022-11-17T10:44:12.816Z,74.13
2022-11-17T10:47:03.124Z,73.42
2022-11-17T10:49:35.738Z,73.30
2022-11-17T10:52:11.762Z,72.92
2022-11-17T10:54:39.330Z,72.91
2022-11-17T10:57:13.754Z,73.26
2022-11-17T10:59:59.579Z,71.06
2022-11-17T11:02:40.265Z,71.24
2022-11-17T11:05:13.960Z,72.01
2022-11-17T11:07:41.931Z,71.73
2022-11-17T11:10:23.644Z,71.49
2022-11-17T11:13:32.578Z,71.06
2022-11-17T11:16:00.023Z,71.05
2022-11-17T11:18:30.301Z,71.42
2022-11-17T11:21:14.207Z,70.84
2022-11-17T11:24:09.127Z,70.90
2022-11-17T11:27:12.619Z,70.00
2022-11-17T11:29:39.471Z,70.86
2022-11-17T11:32:21.042Z,69.96
2022-11-17T11:34:59.946Z,70.53
2022-11-17T11:38:07.235Z,68.61
2022-11-17T11:40:40.759Z,68.68
2022-11-17T11:43:29.208Z,67.71
2022-11-17T11:46:16.225Z,67.60
2022-11-17T11:48:43.379Z,68.32
2022-11-17T11:51:29.088Z,67.83
2022-11-17T11:54:28.012Z,66.11
2022-11-17T11:56:55.610Z,65.70
2022-11-17T12:00:02.428Z,67.20
2022-11-17T12:03:13.404Z,64.48
2022-11-17T12:06:24.355Z,63.71
2022-11-17T12:09:18.965Z,63.28
2022-11-17T12:12:03.207Z,64.12
2022-11-17T12:14:34.242Z,63.73
2022-11-17T12:17:07.202Z,63.72
2022-11-17T12:19:59.591Z,63.68
2022-11-17T12:22:29.457Z,64.28
2022-11-17T12:25:24.647Z,64.76
2022-11-17T12:27:53.386Z,65.27
2022-11-17T12:30:36.738Z,63.75
2022-11-17T12:33:06.862Z,62.89
2022-11-17T12:35:37.364Z,63.18
2022-11-17T12:38:20.013Z,62.66
2022-11-17T12:40:47.777Z,61.72
2022-11-17T12:43:25.559Z,61.76
2022-11-17T12:46:23.964Z,61.23
2022-11-17T12:49:28.255Z,61.08
2022-11-17T12:52:06.238Z,60.82
2022-11-17T12:54:59.883Z,61.21
2022-11-17T12:57:34.265Z,61.23
2022-11-17T13:00:25.823Z,60.93
2022-11-17T13:03:24.975Z,60.14
2022-11-17T13:09:12.219Z,60.61
2022-11-17T13:11:39.213Z,61.10
2022-11-17T13:14:15.808Z,60.89
2022-11-17T13:16:50.976Z,61.07
2022-11-17T13:19:36.797Z,61.50
2022-11-17T13:22:13.833Z,60.28
2022-11-17T13:24:47.283Z,59.52
2022-11-17T13:27:30.621Z,60.62
2022-11-17T13:30:30.377Z,61.23
2022-11-17T13:33:01.676Z,60.18
2022-11-17T13:35:35.590Z,60.48
2022-11-17T13:38:23.779Z,60.99
2022-11-17T13:40:53.534Z,60.51
2022-11-17T13:43:23.206Z,61.37
2022-11-17T13:45:54.839Z,61.45
2022-11-17T13:48:40.746Z,60.81
2022-11-17T13:51:27.882Z,60.99
2022-11-17T13:54:05.354Z,61.25
2022-11-17T13:56:42.875Z,61.22
2022-11-17T13:59:33.958Z,60.16
2022-11-17T14:02:21.657Z,61.17
2022-11-17T14:05:11.224Z,61.45
2022-11-17T14:07:40.005Z,61.20
2022-11-17T14:10:22.498Z,60.57
2022-11-17T14:12:52.699Z,61.11
2022-11-17T14:15:29.220Z,61.71
2022-11-17T14:18:03.001Z,61.84
2022-11-17T14:20:35.800Z,61.81
2022-11-17T14:23:17.974Z,61.81
2022-11-17T14:25:50.131Z,61.85
2022-11-17T14:28:23.018Z,62.58
2022-11-17T14:30:53.446Z,62.66
2022-11-17T14:33:20.900Z,62.78
2022-11-17T14:35:59.270Z,63.33
2022-11-17T14:38:26.309Z,63.81
2022-11-17T14:40:53.914Z,63.84
2022-11-17T14:43:22.597Z,63.85
2022-11-17T14:45:50.620Z,64.00
2022-11-17T14:48:19.456Z,64.11
2022-11-17T14:50:47.479Z,64.47
2022-11-17T14:53:14.991Z,64.40
2022-11-17T14:55:41.992Z,64.92
2022-11-17T14:58:10.103Z,64.26
2022-11-17T15:00:37.647Z,64.23
2022-11-17T15:03:04.863Z,64.72
2022-11-17T15:05:31.975Z,65.55
2022-11-17T15:07:59.045Z,65.17
2022-11-17T15:10:26.118Z,65.26
2022-11-17T15:12:53.072Z,64.79
2022-11-17T15:15:20.064Z,64.39
2022-11-17T15:17:47.109Z,65.53
2022-11-17T15:20:14.394Z,65.31
2022-11-17T15:22:41.465Z,65.34
2022-11-17T15:25:09.234Z,65.98
2022-11-17T15:27:36.239Z,66.50
2022-11-17T15:30:04.555Z,66.59
2022-11-17T15:32:32.672Z,66.37
2022-11-17T15:34:59.660Z,66.42
2022-11-17T15:37:27.250Z,66.69
2022-11-17T15:39:54.371Z,66.21
2022-11-17T15:42:21.385Z,66.02
2022-11-17T15:44:48.630Z,66.23
2022-11-17T15:47:15.705Z,66.14
2022-11-17T15:49:42.939Z,67.03
2022-11-17T15:52:09.893Z,66.95
2022-11-17T15:54:36.884Z,66.73
2022-11-17T15:57:04.641Z,67.58
2022-11-17T15:59:32.048Z,67.40
2022-11-17T16:01:59.043Z,67.51
2022-11-17T16:04:26.106Z,67.50
2022-11-17T16:06:53.116Z,66.98
2022-11-17T16:09:20.432Z,67.41
2022-11-17T16:11:47.538Z,67.49
2022-11-17T16:14:15.090Z,66.91
2022-11-17T16:16:42.369Z,67.70
2022-11-17T16:19:09.492Z,67.94
2022-11-17T16:21:36.547Z,67.74
2022-11-17T16:24:03.713Z,67.73
2022-11-17T16:26:31.751Z,68.28
2022-11-17T16:29:00.984Z,67.70
2022-11-17T16:31:30.772Z,67.81
2022-11-17T16:34:06.598Z,67.84
2022-11-17T16:36:37.483Z,67.38
2022-11-17T16:39:08.091Z,67.51
2022-11-17T16:41:38.730Z,67.90
2022-11-17T16:44:15.081Z,68.29
2022-11-17T16:46:45.771Z,67.69
2022-11-17T16:49:15.955Z,67.21
2022-11-17T16:51:52.115Z,67.36
2022-11-17T16:54:19.976Z,67.17
2022-11-17T16:56:47.033Z,67.98
2022-11-17T16:59:14.953Z,67.84
2022-11-17T17:01:42.132Z,68.29
2022-11-17T17:04:10.703Z,68.62
2022-11-17T17:06:44.307Z,67.95
2022-11-17T17:09:13.657Z,68.32
2022-11-17T17:11:41.116Z,68.22
2022-11-17T17:14:11.951Z,68.51
2022-11-17T17:16:39.043Z,69.09
2022-11-17T17:19:09.581Z,67.92
2022-11-17T17:21:38.259Z,68.44
2022-11-17T17:24:06.131Z,68.20
2022-11-17T17:26:34.881Z,68.69
2022-11-17T17:29:04.631Z,68.44
2022-11-17T17:31:39.939Z,68.34
2022-11-17T17:34:08.527Z,69.14
2022-11-17T17:36:37.121Z,68.59
2022-11-17T17:39:05.692Z,69.50
2022-11-17T17:41:38.194Z,68.15
2022-11-17T17:44:07.601Z,68.93
2022-11-17T17:46:37.980Z,69.13
2022-11-17T17:49:05.991Z,69.32
2022-11-17T17:51:36.613Z,69.30
2022-11-17T17:54:03.695Z,69.47
2022-11-17T17:56:30.796Z,69.56
2022-11-17T17:58:58.418Z,70.03
2022-11-17T18:01:28.323Z,70.37
2022-11-17T18:04:01.407Z,70.53
2022-11-17T18:06:28.875Z,71.00
2022-11-17T18:08:57.168Z,71.23
2022-11-17T18:11:24.737Z,71.19
2022-11-17T18:13:52.931Z,70.97
2022-11-17T18:16:26.991Z,71.47
2022-11-17T18:19:03.064Z,71.23
2022-11-17T18:21:30.648Z,70.30
2022-11-17T18:24:01.376Z,70.92
2022-11-17T18:26:35.383Z,69.89
2022-11-17T18:29:18.587Z,71.83
2022-11-17T18:31:47.375Z,71.18
2022-11-17T18:34:21.808Z,72.06
2022-11-17T18:36:51.293Z,71.67
2022-11-17T18:39:18.716Z,70.38
2022-11-17T18:41:45.915Z,71.26
2022-11-17T18:44:15.295Z,72.22
2022-11-17T18:46:42.558Z,71.59
2022-11-17T18:49:09.627Z,72.30
2022-11-17T18:51:36.642Z,71.86
2022-11-17T18:54:04.200Z,71.72
2022-11-17T18:56:38.462Z,72.78
2022-11-17T18:59:13.566Z,72.74
2022-11-17T19:01:43.243Z,73.00
2022-11-17T19:04:13.686Z,72.95
2022-11-17T19:06:40.841Z,72.92
2022-11-17T19:09:08.409Z,73.36
2022-11-17T19:11:35.634Z,73.95
2022-11-17T19:14:04.250Z,74.19
2022-11-17T19:16:32.583Z,74.44
2022-11-17T19:18:59.842Z,74.17
2022-11-17T19:21:30.828Z,73.33
2022-11-17T19:24:00.440Z,73.65
2022-11-17T19:26:36.016Z,74.48
2022-11-17T19:29:15.543Z,74.02
2022-11-17T19:31:44.085Z,74.55
2022-11-17T19:34:11.511Z,74.84
2022-11-17T19:36:38.682Z,74.67
2022-11-17T19:39:05.769Z,74.04
2022-11-17T19:41:38.388Z,74.29
2022-11-17T19:44:08.469Z,73.97
2022-11-17T19:46:36.889Z,73.73
2022-11-17T19:49:06.138Z,73.63
2022-11-17T19:51:38.498Z,72.81
2022-11-17T19:54:08.802Z,71.66
2022-11-17T19:56:37.234Z,70.04
2022-11-17T19:59:04.900Z,69.79
2022-11-17T20:01:33.588Z,69.69
2022-11-17T20:04:01.932Z,70.85
2022-11-17T20:06:37.064Z,69.69
2022-11-17T20:09:13.270Z,70.95
2022-11-17T20:11:41.320Z,71.67
2022-11-17T20:14:08.994Z,68.40
2022-11-17T20:16:38.642Z,67.19
2022-11-17T20:19:05.946Z,67.13
2022-11-17T20:21:33.723Z,67.53
2022-11-17T20:24:01.921Z,68.66
2022-11-17T20:26:32.206Z,68.08
2022-11-17T20:29:00.549Z,67.76
2022-11-17T20:31:32.154Z,67.17
2022-11-17T20:34:01.020Z,67.66
2022-11-17T20:36:31.219Z,67.31
2022-11-17T20:39:02.342Z,66.73
2022-11-17T20:41:30.358Z,67.29
2022-11-17T20:43:59.939Z,66.93
2022-11-17T20:46:27.977Z,67.54
2022-11-17T20:48:55.395Z,65.99
2022-11-17T20:51:25.183Z,65.74
2022-11-17T20:53:52.474Z,66.08
2022-11-17T20:56:19.939Z,66.04
2022-11-17T20:58:47.416Z,65.66
2022-11-17T21:01:20.648Z,66.35
2022-11-17T21:03:47.929Z,66.21
2022-11-17T21:06:16.486Z,65.69
2022-11-17T21:08:45.134Z,65.64
2022-11-17T21:11:34.303Z,66.75
2022-11-17T21:14:02.070Z,66.26
2022-11-17T21:16:29.485Z,66.18
2022-11-17T21:18:56.540Z,66.26
2022-11-17T21:21:23.560Z,66.65
2022-11-17T21:23:54.306Z,66.35
2022-11-17T21:26:23.021Z,65.63
2022-11-17T21:28:50.567Z,66.02
2022-11-17T21:31:27.449Z,66.19
2022-11-17T21:33:57.504Z,67.29
2022-11-17T21:36:27.408Z,67.88
2022-11-17T21:38:55.797Z,68.22
2022-11-17T21:41:30.099Z,69.02
2022-11-17T21:44:03.226Z,69.49
2022-11-17T21:46:33.920Z,69.40
2022-11-17T21:49:01.355Z,69.33
2022-11-17T21:51:35.364Z,69.45
2022-11-17T21:54:05.726Z,69.82
2022-11-17T21:56:33.208Z,69.87
2022-11-17T21:59:10.231Z,70.53
2022-11-17T22:01:37.955Z,70.15
2022-11-17T22:04:06.046Z,69.51
2022-11-17T22:06:33.875Z,69.49
2022-11-17T22:09:00.928Z,70.21
2022-11-17T22:11:37.689Z,71.60
2022-11-17T22:14:18.274Z,70.69
2022-11-17T22:16:56.413Z,70.67
2022-11-17T22:19:27.874Z,70.46
2022-11-17T22:21:55.411Z,70.61
2022-11-17T22:24:23.286Z,69.87
2022-11-17T22:26:51.696Z,70.07
2022-11-17T22:29:22.352Z,70.38
2022-11-17T22:31:50.885Z,69.64
2022-11-17T22:34:19.022Z,69.50
2022-11-17T22:36:46.242Z,69.54
2022-11-17T22:39:13.691Z,69.48
2022-11-17T22:41:40.895Z,69.41
2022-11-17T22:44:08.049Z,69.78
2022-11-17T22:46:36.419Z,70.31
2022-11-17T22:49:04.102Z,70.75
2022-11-17T22:51:50.112Z,70.68
2022-11-17T22:54:17.319Z,70.38
2022-11-17T22:56:45.625Z,70.21
2022-11-17T22:59:12.697Z,70.66
2022-11-17T23:01:39.803Z,70.85
2022-11-17T23:04:07.050Z,70.78
2022-11-17T23:06:34.391Z,70.62
2022-11-17T23:09:01.456Z,70.51
2022-11-17T23:11:38.365Z,70.45
2022-11-17T23:14:09.493Z,70.34
2022-11-17T23:16:37.886Z,70.18
2022-11-17T23:19:05.835Z,71.50
2022-11-17T23:21:33.347Z,70.70
2022-11-17T23:24:00.434Z,70.18
2022-11-17T23:26:27.567Z,70.04
2022-11-17T23:28:54.711Z,70.34
2022-11-17T23:31:21.680Z,69.69
2022-11-17T23:33:49.108Z,70.09
2022-11-17T23:36:19.450Z,70.49
2022-11-17T23:38:48.274Z,70.75
2022-11-17T23:41:19.283Z,71.14
2022-11-17T23:43:49.684Z,70.83
2022-11-17T23:46:19.756Z,70.28
2022-11-17T23:48:47.111Z,70.66
2022-11-17T23:51:25.805Z,70.49
2022-11-17T23:53:53.209Z,71.01
2022-11-17T23:56:21.311Z,71.04
2022-11-17T23:58:49.247Z,70.83
